sensor_id;sensor_type;location;lat;lon;timestamp;pressure;altitude;pressure_sealevel;temperature;humidity
7109;BME280;29079;41.930;25.558;2023-03-21T00:01:00;99605.16;;;7.43;84.47
7109;BME280;29079;41.930;25.558;2023-03-21T00:03:35;99608.00;;;7.29;85.55
7109;BME280;29079;41.930;25.558;2023-03-21T00:06:11;99608.00;;;7.29;85.22
7109;BME280;29079;41.930;25.558;2023-03-21T00:08:44;99608.34;;;7.24;85.26
7109;BME280;29079;41.930;25.558;2023-03-21T00:11:17;99607.81;;;7.32;85.15
7109;BME280;29079;41.930;25.558;2023-03-21T00:13:53;99599.97;;;7.42;84.31
7109;BME280;29079;41.930;25.558;2023-03-21T00:16:29;99599.31;;;7.27;84.48
7109;BME280;29079;41.930;25.558;2023-03-21T00:19:05;99603.25;;;7.21;84.97
7109;BME280;29079;41.930;25.558;2023-03-21T00:21:41;99599.19;;;7.28;85.56
7109;BME280;29079;41.930;25.558;2023-03-21T00:24:37;99605.25;;;7.30;85.01
7109;BME280;29079;41.930;25.558;2023-03-21T00:27:10;99605.88;;;7.34;83.86
7109;BME280;29079;41.930;25.558;2023-03-21T00:30:05;99604.28;;;7.07;84.43
7109;BME280;29079;41.930;25.558;2023-03-21T00:32:38;99603.03;;;7.00;85.06
7109;BME280;29079;41.930;25.558;2023-03-21T00:35:26;99605.38;;;7.05;84.44
7109;BME280;29079;41.930;25.558;2023-03-21T00:38:21;99603.03;;;7.00;85.30
7109;BME280;29079;41.930;25.558;2023-03-21T00:40:55;99596.72;;;6.90;85.04
7109;BME280;29079;41.930;25.558;2023-03-21T00:43:35;99586.50;;;6.96;84.88
7109;BME280;29079;41.930;25.558;2023-03-21T00:46:09;99588.50;;;7.06;85.11
7109;BME280;29079;41.930;25.558;2023-03-21T00:48:42;99579.66;;;7.05;85.15
7109;BME280;29079;41.930;25.558;2023-03-21T00:51:17;99585.00;;;6.92;85.50
7109;BME280;29079;41.930;25.558;2023-03-21T00:53:58;99571.34;;;7.10;84.74
7109;BME280;29079;41.930;25.558;2023-03-21T00:56:31;99576.44;;;7.13;84.48
7109;BME280;29079;41.930;25.558;2023-03-21T00:59:04;99567.19;;;6.94;85.84
7109;BME280;29079;41.930;25.558;2023-03-21T01:01:37;99577.47;;;6.99;85.14
7109;BME280;29079;41.930;25.558;2023-03-21T01:04:11;99565.44;;;7.06;84.79
7109;BME280;29079;41.930;25.558;2023-03-21T01:06:45;99559.22;;;7.19;84.99
7109;BME280;29079;41.930;25.558;2023-03-21T01:09:20;99560.44;;;7.14;84.34
7109;BME280;29079;41.930;25.558;2023-03-21T01:11:54;99554.38;;;7.12;85.20
7109;BME280;29079;41.930;25.558;2023-03-21T01:14:28;99555.44;;;7.10;84.91
7109;BME280;29079;41.930;25.558;2023-03-21T01:17:02;99554.47;;;6.87;85.62
7109;BME280;29079;41.930;25.558;2023-03-21T01:19:35;99542.34;;;6.95;85.23
7109;BME280;29079;41.930;25.558;2023-03-21T01:22:23;99540.09;;;7.02;85.39
7109;BME280;29079;41.930;25.558;2023-03-21T01:24:58;99536.38;;;7.05;85.56
7109;BME280;29079;41.930;25.558;2023-03-21T01:27:51;99531.06;;;7.05;85.92
7109;BME280;29079;41.930;25.558;2023-03-21T01:30:25;99538.22;;;7.15;85.51
7109;BME280;29079;41.930;25.558;2023-03-21T01:33:01;99535.44;;;7.17;85.35
7109;BME280;29079;41.930;25.558;2023-03-21T01:35:35;99530.47;;;7.12;85.38
7109;BME280;29079;41.930;25.558;2023-03-21T01:38:23;99522.94;;;6.95;86.36
7109;BME280;29079;41.930;25.558;2023-03-21T01:40:58;99522.63;;;7.11;84.92
7109;BME280;29079;41.930;25.558;2023-03-21T01:43:39;99520.31;;;7.06;85.43
7109;BME280;29079;41.930;25.558;2023-03-21T01:46:19;99512.94;;;6.99;85.94
7109;BME280;29079;41.930;25.558;2023-03-21T01:48:53;99509.47;;;7.09;85.87
7109;BME280;29079;41.930;25.558;2023-03-21T01:51:28;99506.59;;;7.12;85.89
7109;BME280;29079;41.930;25.558;2023-03-21T01:54:02;99508.53;;;7.10;85.66
7109;BME280;29079;41.930;25.558;2023-03-21T01:56:38;99500.41;;;7.01;86.00
7109;BME280;29079;41.930;25.558;2023-03-21T01:59:13;99501.28;;;7.12;86.12
7109;BME280;29079;41.930;25.558;2023-03-21T02:01:48;99502.75;;;7.17;85.96
7109;BME280;29079;41.930;25.558;2023-03-21T02:04:22;99501.88;;;7.05;85.78
7109;BME280;29079;41.930;25.558;2023-03-21T02:06:59;99498.88;;;7.09;86.61
7109;BME280;29079;41.930;25.558;2023-03-21T02:09:36;99499.38;;;7.14;86.59
7109;BME280;29079;41.930;25.558;2023-03-21T02:12:13;99502.13;;;7.13;85.97
7109;BME280;29079;41.930;25.558;2023-03-21T02:14:48;99501.63;;;7.08;86.53
7109;BME280;29079;41.930;25.558;2023-03-21T02:17:23;99498.94;;;6.96;87.61
7109;BME280;29079;41.930;25.558;2023-03-21T02:23:08;99493.16;;;7.03;86.68
7109;BME280;29079;41.930;25.558;2023-03-21T02:25:53;99491.38;;;7.03;86.82
7109;BME280;29079;41.930;25.558;2023-03-21T02:28:31;99495.50;;;7.07;87.20
7109;BME280;29079;41.930;25.558;2023-03-21T02:31:13;99497.28;;;7.07;86.65
7109;BME280;29079;41.930;25.558;2023-03-21T02:36:55;99491.16;;;6.82;87.35
7109;BME280;29079;41.930;25.558;2023-03-21T02:39:34;99496.28;;;6.96;87.32
7109;BME280;29079;41.930;25.558;2023-03-21T02:42:14;99497.91;;;6.86;86.75
7109;BME280;29079;41.930;25.558;2023-03-21T02:44:48;99491.91;;;6.84;87.07
7109;BME280;29079;41.930;25.558;2023-03-21T02:47:27;99486.91;;;6.79;88.26
7109;BME280;29079;41.930;25.558;2023-03-21T02:50:04;99490.97;;;6.96;88.12
7109;BME280;29079;41.930;25.558;2023-03-21T02:52:42;99481.06;;;6.87;88.66
7109;BME280;29079;41.930;25.558;2023-03-21T02:55:21;99476.34;;;6.91;88.89
7109;BME280;29079;41.930;25.558;2023-03-21T02:57:56;99476.63;;;6.99;88.36
7109;BME280;29079;41.930;25.558;2023-03-21T03:00:41;99472.22;;;7.11;89.08
7109;BME280;29079;41.930;25.558;2023-03-21T03:03:14;99469.28;;;7.03;88.30
7109;BME280;29079;41.930;25.558;2023-03-21T03:06:06;99474.38;;;7.06;88.29
7109;BME280;29079;41.930;25.558;2023-03-21T03:08:47;99469.97;;;6.93;89.27
7109;BME280;29079;41.930;25.558;2023-03-21T03:11:34;99471.78;;;6.93;88.73
7109;BME280;29079;41.930;25.558;2023-03-21T03:14:28;99474.47;;;7.04;88.52
7109;BME280;29079;41.930;25.558;2023-03-21T03:17:34;99468.97;;;7.19;87.91
7109;BME280;29079;41.930;25.558;2023-03-21T03:20:12;99478.63;;;7.20;88.16
7109;BME280;29079;41.930;25.558;2023-03-21T03:22:51;99472.97;;;7.24;88.93
7109;BME280;29079;41.930;25.558;2023-03-21T03:25:29;99467.56;;;7.37;89.34
7109;BME280;29079;41.930;25.558;2023-03-21T03:28:14;99474.94;;;7.34;89.21
7109;BME280;29079;41.930;25.558;2023-03-21T03:30:48;99471.19;;;7.36;89.94
7109;BME280;29079;41.930;25.558;2023-03-21T03:33:39;99476.84;;;7.31;89.52
7109;BME280;29079;41.930;25.558;2023-03-21T03:36:15;99473.47;;;7.29;89.57
7109;BME280;29079;41.930;25.558;2023-03-21T03:39:02;99478.19;;;7.37;89.75
7109;BME280;29079;41.930;25.558;2023-03-21T03:41:40;99471.53;;;7.31;89.80
7109;BME280;29079;41.930;25.558;2023-03-21T03:44:36;99473.34;;;6.95;91.31
7109;BME280;29079;41.930;25.558;2023-03-21T03:47:10;99480.25;;;6.98;91.82
7109;BME280;29079;41.930;25.558;2023-03-21T03:50:01;99478.75;;;7.18;91.40
7109;BME280;29079;41.930;25.558;2023-03-21T03:52:36;99484.38;;;7.02;91.33
7109;BME280;29079;41.930;25.558;2023-03-21T03:55:26;99491.66;;;6.87;92.72
7109;BME280;29079;41.930;25.558;2023-03-21T03:58:07;99491.84;;;7.08;91.67
7109;BME280;29079;41.930;25.558;2023-03-21T04:00:54;99484.38;;;7.02;91.61
7109;BME280;29079;41.930;25.558;2023-03-21T04:03:27;99487.53;;;7.07;91.32
7109;BME280;29079;41.930;25.558;2023-03-21T04:06:17;99488.84;;;7.02;89.16
7109;BME280;29079;41.930;25.558;2023-03-21T04:08:50;99490.38;;;6.93;89.08
7109;BME280;29079;41.930;25.558;2023-03-21T04:11:24;99495.56;;;6.94;89.75
7109;BME280;29079;41.930;25.558;2023-03-21T04:14:00;99491.25;;;6.80;89.58
7109;BME280;29079;41.930;25.558;2023-03-21T04:16:33;99498.28;;;6.82;90.13
7109;BME280;29079;41.930;25.558;2023-03-21T04:19:06;99495.97;;;6.77;90.72
7109;BME280;29079;41.930;25.558;2023-03-21T04:21:40;99504.19;;;6.61;90.92
7109;BME280;29079;41.930;25.558;2023-03-21T04:24:13;99496.28;;;6.72;91.20
7109;BME280;29079;41.930;25.558;2023-03-21T04:26:46;99489.38;;;6.83;90.38
7109;BME280;29079;41.930;25.558;2023-03-21T04:29:21;99494.38;;;6.74;91.75
7109;BME280;29079;41.930;25.558;2023-03-21T04:31:54;99501.88;;;6.80;90.67
7109;BME280;29079;41.930;25.558;2023-03-21T04:34:28;99495.09;;;6.76;91.36
7109;BME280;29079;41.930;25.558;2023-03-21T04:37:01;99492.63;;;6.86;90.68
7109;BME280;29079;41.930;25.558;2023-03-21T04:39:41;99499.03;;;6.95;90.89
7109;BME280;29079;41.930;25.558;2023-03-21T04:42:17;99496.09;;;6.87;90.90
7109;BME280;29079;41.930;25.558;2023-03-21T04:44:51;99497.41;;;6.81;91.86
7109;BME280;29079;41.930;25.558;2023-03-21T04:47:24;99500.13;;;6.92;90.94
7109;BME280;29079;41.930;25.558;2023-03-21T04:49:58;99498.56;;;6.90;91.10
7109;BME280;29079;41.930;25.558;2023-03-21T04:52:31;99494.63;;;7.07;90.07
7109;BME280;29079;41.930;25.558;2023-03-21T04:55:05;99494.66;;;6.83;92.08
7109;BME280;29079;41.930;25.558;2023-03-21T04:57:41;99498.16;;;7.07;91.09
7109;BME280;29079;41.930;25.558;2023-03-21T05:00:15;99488.06;;;7.24;89.68
7109;BME280;29079;41.930;25.558;2023-03-21T05:02:49;99493.38;;;7.24;90.65
7109;BME280;29079;41.930;25.558;2023-03-21T05:05:22;99501.56;;;7.21;91.50
7109;BME280;29079;41.930;25.558;2023-03-21T05:07:55;99491.44;;;7.26;92.17
7109;BME280;29079;41.930;25.558;2023-03-21T05:10:28;99507.88;;;7.31;92.34
7109;BME280;29079;41.930;25.558;2023-03-21T05:13:03;99506.91;;;7.32;91.64
7109;BME280;29079;41.930;25.558;2023-03-21T05:15:38;99516.06;;;7.28;91.96
7109;BME280;29079;41.930;25.558;2023-03-21T05:18:11;99506.88;;;7.21;91.63
7109;BME280;29079;41.930;25.558;2023-03-21T05:20:44;99505.16;;;7.20;92.03
7109;BME280;29079;41.930;25.558;2023-03-21T05:23:24;99505.13;;;7.08;93.31
7109;BME280;29079;41.930;25.558;2023-03-21T05:26:02;99517.72;;;7.18;92.89
7109;BME280;29079;41.930;25.558;2023-03-21T05:28:36;99517.91;;;7.39;92.52
7109;BME280;29079;41.930;25.558;2023-03-21T05:31:12;99520.78;;;7.36;92.30
7109;BME280;29079;41.930;25.558;2023-03-21T05:33:47;99532.06;;;7.50;92.43
7109;BME280;29079;41.930;25.558;2023-03-21T05:36:20;99538.13;;;7.53;91.93
7109;BME280;29079;41.930;25.558;2023-03-21T05:38:53;99542.59;;;7.63;90.80
7109;BME280;29079;41.930;25.558;2023-03-21T05:41:27;99532.13;;;7.73;89.74
7109;BME280;29079;41.930;25.558;2023-03-21T05:43:59;99529.47;;;7.73;89.90
7109;BME280;29079;41.930;25.558;2023-03-21T05:46:34;99524.16;;;7.73;90.48
7109;BME280;29079;41.930;25.558;2023-03-21T05:49:08;99536.84;;;7.92;89.74
7109;BME280;29079;41.930;25.558;2023-03-21T05:51:41;99538.78;;;7.90;89.78
7109;BME280;29079;41.930;25.558;2023-03-21T05:54:15;99545.44;;;7.84;90.63
7109;BME280;29079;41.930;25.558;2023-03-21T05:56:48;99544.56;;;7.84;92.10
7109;BME280;29079;41.930;25.558;2023-03-21T05:59:23;99544.47;;;7.97;91.49
7109;BME280;29079;41.930;25.558;2023-03-21T06:01:58;99543.88;;;7.93;91.22
7109;BME280;29079;41.930;25.558;2023-03-21T06:04:31;99541.69;;;7.98;92.00
7109;BME280;29079;41.930;25.558;2023-03-21T06:07:04;99542.44;;;8.12;91.49
7109;BME280;29079;41.930;25.558;2023-03-21T06:09:38;99546.66;;;8.26;90.92
7109;BME280;29079;41.930;25.558;2023-03-21T06:12:11;99547.38;;;8.28;91.45
7109;BME280;29079;41.930;25.558;2023-03-21T06:14:45;99554.38;;;8.29;91.80
7109;BME280;29079;41.930;25.558;2023-03-21T06:17:19;99545.19;;;8.33;91.57
7109;BME280;29079;41.930;25.558;2023-03-21T06:19:53;99540.84;;;8.32;91.02
7109;BME280;29079;41.930;25.558;2023-03-21T06:22:26;99545.44;;;8.30;91.43
7109;BME280;29079;41.930;25.558;2023-03-21T06:24:59;99535.75;;;8.40;90.60
7109;BME280;29079;41.930;25.558;2023-03-21T06:27:32;99531.69;;;8.47;90.79
7109;BME280;29079;41.930;25.558;2023-03-21T06:30:06;99532.25;;;8.51;91.15
7109;BME280;29079;41.930;25.558;2023-03-21T06:32:42;99541.53;;;8.79;90.37
7109;BME280;29079;41.930;25.558;2023-03-21T06:35:15;99540.03;;;8.98;89.57
7109;BME280;29079;41.930;25.558;2023-03-21T06:37:48;99547.75;;;9.12;90.63
7109;BME280;29079;41.930;25.558;2023-03-21T06:40:21;99544.69;;;9.17;90.48
7109;BME280;29079;41.930;25.558;2023-03-21T06:42:54;99540.38;;;9.37;90.25
7109;BME280;29079;41.930;25.558;2023-03-21T06:45:27;99541.47;;;9.34;90.72
7109;BME280;29079;41.930;25.558;2023-03-21T06:48:02;99534.19;;;9.36;90.48
7109;BME280;29079;41.930;25.558;2023-03-21T06:50:39;99540.69;;;9.44;90.78
7109;BME280;29079;41.930;25.558;2023-03-21T06:53:12;99542.97;;;9.48;90.68
7109;BME280;29079;41.930;25.558;2023-03-21T06:55:47;99543.44;;;9.53;90.38
7109;BME280;29079;41.930;25.558;2023-03-21T06:58:21;99533.31;;;9.47;91.49
7109;BME280;29079;41.930;25.558;2023-03-21T07:00:57;99539.81;;;9.54;91.56
7109;BME280;29079;41.930;25.558;2023-03-21T07:03:31;99544.94;;;9.67;90.51
7109;BME280;29079;41.930;25.558;2023-03-21T07:06:04;99546.22;;;9.73;90.19
7109;BME280;29079;41.930;25.558;2023-03-21T07:08:39;99537.00;;;9.77;90.07
7109;BME280;29079;41.930;25.558;2023-03-21T07:11:13;99539.59;;;9.88;89.40
7109;BME280;29079;41.930;25.558;2023-03-21T07:13:47;99543.34;;;9.86;89.79
7109;BME280;29079;41.930;25.558;2023-03-21T07:16:21;99542.59;;;9.95;89.32
7109;BME280;29079;41.930;25.558;2023-03-21T07:18:57;99534.50;;;10.06;88.88
7109;BME280;29079;41.930;25.558;2023-03-21T07:21:30;99536.94;;;10.19;88.48
7109;BME280;29079;41.930;25.558;2023-03-21T07:24:03;99531.09;;;10.25;89.00
7109;BME280;29079;41.930;25.558;2023-03-21T07:26:36;99536.56;;;10.24;89.02
7109;BME280;29079;41.930;25.558;2023-03-21T07:29:10;99534.19;;;10.31;88.95
7109;BME280;29079;41.930;25.558;2023-03-21T07:31:43;99531.34;;;10.22;88.83
7109;BME280;29079;41.930;25.558;2023-03-21T07:34:17;99537.56;;;10.33;88.81
7109;BME280;29079;41.930;25.558;2023-03-21T07:36:51;99526.44;;;10.27;89.17
7109;BME280;29079;41.930;25.558;2023-03-21T07:39:24;99529.72;;;10.31;89.00
7109;BME280;29079;41.930;25.558;2023-03-21T07:41:58;99519.63;;;10.35;89.11
7109;BME280;29079;41.930;25.558;2023-03-21T07:44:31;99524.56;;;10.39;88.89
7109;BME280;29079;41.930;25.558;2023-03-21T07:47:05;99526.38;;;10.39;88.68
7109;BME280;29079;41.930;25.558;2023-03-21T07:49:39;99524.28;;;10.42;88.85
7109;BME280;29079;41.930;25.558;2023-03-21T07:52:12;99529.25;;;10.57;86.94
7109;BME280;29079;41.930;25.558;2023-03-21T07:54:47;99520.72;;;10.73;87.61
7109;BME280;29079;41.930;25.558;2023-03-21T07:57:21;99536.59;;;10.74;87.02
7109;BME280;29079;41.930;25.558;2023-03-21T07:59:54;99527.06;;;10.91;86.06
7109;BME280;29079;41.930;25.558;2023-03-21T08:02:27;99521.31;;;11.06;85.67
7109;BME280;29079;41.930;25.558;2023-03-21T08:05:01;99519.63;;;11.14;84.46
7109;BME280;29079;41.930;25.558;2023-03-21T08:07:35;99524.25;;;11.22;83.50
7109;BME280;29079;41.930;25.558;2023-03-21T08:10:09;99515.97;;;11.25;81.57
7109;BME280;29079;41.930;25.558;2023-03-21T08:12:43;99518.06;;;11.41;81.64
7109;BME280;29079;41.930;25.558;2023-03-21T08:15:18;99523.25;;;11.53;82.98
7109;BME280;29079;41.930;25.558;2023-03-21T08:17:52;99524.38;;;11.60;81.72
7109;BME280;29079;41.930;25.558;2023-03-21T08:20:26;99523.94;;;11.64;82.85
7109;BME280;29079;41.930;25.558;2023-03-21T08:22:59;99517.22;;;11.50;84.44
7109;BME280;29079;41.930;25.558;2023-03-21T08:25:33;99517.78;;;11.54;84.52
7109;BME280;29079;41.930;25.558;2023-03-21T08:28:07;99511.03;;;11.60;82.27
7109;BME280;29079;41.930;25.558;2023-03-21T08:30:40;99516.22;;;11.71;82.25
7109;BME280;29079;41.930;25.558;2023-03-21T08:33:14;99514.94;;;11.75;82.46
7109;BME280;29079;41.930;25.558;2023-03-21T08:35:50;99511.28;;;11.76;81.07
7109;BME280;29079;41.930;25.558;2023-03-21T08:38:23;99506.31;;;11.91;79.12
7109;BME280;29079;41.930;25.558;2023-03-21T08:41:01;99503.75;;;11.99;77.53
7109;BME280;29079;41.930;25.558;2023-03-21T08:43:34;99508.38;;;12.17;78.73
7109;BME280;29079;41.930;25.558;2023-03-21T08:46:07;99490.38;;;12.09;78.40
7109;BME280;29079;41.930;25.558;2023-03-21T08:48:40;99495.97;;;12.16;79.10
7109;BME280;29079;41.930;25.558;2023-03-21T08:51:15;99488.41;;;12.11;79.96
7109;BME280;29079;41.930;25.558;2023-03-21T08:53:48;99487.69;;;12.09;79.57
7109;BME280;29079;41.930;25.558;2023-03-21T08:56:22;99490.06;;;12.12;78.70
7109;BME280;29079;41.930;25.558;2023-03-21T08:58:55;99485.97;;;12.18;78.54
7109;BME280;29079;41.930;25.558;2023-03-21T09:01:29;99421.44;;;11.93;80.53
7109;BME280;29079;41.930;25.558;2023-03-21T09:04:03;99477.44;;;12.32;80.22
7109;BME280;29079;41.930;25.558;2023-03-21T09:06:40;99476.16;;;12.36;79.87
7109;BME280;29079;41.930;25.558;2023-03-21T09:09:16;99472.16;;;12.50;78.45
7109;BME280;29079;41.930;25.558;2023-03-21T09:11:50;99470.41;;;12.59;78.98
7109;BME280;29079;41.930;25.558;2023-03-21T09:14:24;99464.13;;;12.68;79.01
7109;BME280;29079;41.930;25.558;2023-03-21T09:17:00;99464.81;;;12.70;78.11
7109;BME280;29079;41.930;25.558;2023-03-21T09:19:33;99463.31;;;12.86;77.39
7109;BME280;29079;41.930;25.558;2023-03-21T09:22:10;99464.69;;;12.90;76.70
7109;BME280;29079;41.930;25.558;2023-03-21T09:24:47;99461.44;;;12.86;77.46
7109;BME280;29079;41.930;25.558;2023-03-21T09:27:21;99457.47;;;12.91;77.67
7109;BME280;29079;41.930;25.558;2023-03-21T09:29:56;99456.19;;;12.95;78.29
7109;BME280;29079;41.930;25.558;2023-03-21T09:32:29;99450.47;;;12.89;78.28
7109;BME280;29079;41.930;25.558;2023-03-21T09:35:03;99460.75;;;13.02;77.64
7109;BME280;29079;41.930;25.558;2023-03-21T09:37:40;99456.56;;;13.00;77.80
7109;BME280;29079;41.930;25.558;2023-03-21T09:40:13;99448.38;;;13.01;77.41
7109;BME280;29079;41.930;25.558;2023-03-21T09:42:54;99445.91;;;13.08;76.17
7109;BME280;29079;41.930;25.558;2023-03-21T09:45:31;99444.38;;;13.05;76.59
7109;BME280;29079;41.930;25.558;2023-03-21T09:48:11;99439.25;;;13.12;76.76
7109;BME280;29079;41.930;25.558;2023-03-21T09:50:48;99442.09;;;13.11;77.20
7109;BME280;29079;41.930;25.558;2023-03-21T09:53:24;99443.47;;;13.15;77.32
7109;BME280;29079;41.930;25.558;2023-03-21T09:55:59;99446.50;;;13.20;76.90
7109;BME280;29079;41.930;25.558;2023-03-21T09:58:35;99433.81;;;13.22;77.14
7109;BME280;29079;41.930;25.558;2023-03-21T10:01:11;99422.94;;;13.23;76.69
7109;BME280;29079;41.930;25.558;2023-03-21T10:03:53;99425.16;;;13.28;76.78
7109;BME280;29079;41.930;25.558;2023-03-21T10:06:27;99433.56;;;13.33;76.33
7109;BME280;29079;41.930;25.558;2023-03-21T10:09:03;99440.56;;;13.26;75.83
7109;BME280;29079;41.930;25.558;2023-03-21T10:11:39;99441.94;;;13.30;76.00
7109;BME280;29079;41.930;25.558;2023-03-21T10:14:15;99454.63;;;13.28;75.72
7109;BME280;29079;41.930;25.558;2023-03-21T10:16:50;99457.47;;;13.27;77.03
7109;BME280;29079;41.930;25.558;2023-03-21T10:19:26;99465.50;;;13.27;77.51
7109;BME280;29079;41.930;25.558;2023-03-21T10:21:59;99455.16;;;13.32;76.59
7109;BME280;29079;41.930;25.558;2023-03-21T10:24:36;99447.28;;;13.30;76.39
7109;BME280;29079;41.930;25.558;2023-03-21T10:27:10;99450.09;;;13.29;76.65
7109;BME280;29079;41.930;25.558;2023-03-21T10:29:45;99439.00;;;13.23;77.65
7109;BME280;29079;41.930;25.558;2023-03-21T10:32:18;99434.72;;;13.31;76.66
7109;BME280;29079;41.930;25.558;2023-03-21T10:34:54;99435.81;;;13.38;76.27
7109;BME280;29079;41.930;25.558;2023-03-21T10:37:32;99429.19;;;13.32;76.45
7109;BME280;29079;41.930;25.558;2023-03-21T10:40:12;99427.34;;;13.51;75.18
7109;BME280;29079;41.930;25.558;2023-03-21T10:42:46;99422.31;;;13.48;75.64
7109;BME280;29079;41.930;25.558;2023-03-21T10:45:19;99421.94;;;13.43;75.43
7109;BME280;29079;41.930;25.558;2023-03-21T10:47:54;99423.78;;;13.42;75.38
7109;BME280;29079;41.930;25.558;2023-03-21T10:50:29;99410.38;;;13.42;75.22
7109;BME280;29079;41.930;25.558;2023-03-21T10:53:02;99402.50;;;13.40;75.56
7109;BME280;29079;41.930;25.558;2023-03-21T10:55:38;99391.19;;;13.55;74.31
7109;BME280;29079;41.930;25.558;2023-03-21T10:58:13;99381.28;;;13.55;74.17
7109;BME280;29079;41.930;25.558;2023-03-21T11:00:52;99383.50;;;13.60;74.35
7109;BME280;29079;41.930;25.558;2023-03-21T11:03:26;99382.84;;;13.66;73.10
7109;BME280;29079;41.930;25.558;2023-03-21T11:06:04;99376.88;;;13.72;73.33
7109;BME280;29079;41.930;25.558;2023-03-21T11:08:38;99365.53;;;13.87;72.02
7109;BME280;29079;41.930;25.558;2023-03-21T11:11:19;99358.81;;;13.83;74.99
7109;BME280;29079;41.930;25.558;2023-03-21T11:13:57;99368.88;;;13.89;73.06
7109;BME280;29079;41.930;25.558;2023-03-21T11:16:34;99367.19;;;13.88;72.38
7109;BME280;29079;41.930;25.558;2023-03-21T11:19:12;99364.22;;;13.99;72.02
7109;BME280;29079;41.930;25.558;2023-03-21T11:21:46;99347.97;;;14.01;71.76
7109;BME280;29079;41.930;25.558;2023-03-21T11:24:19;99346.09;;;14.01;73.57
7109;BME280;29079;41.930;25.558;2023-03-21T11:26:54;99360.22;;;14.03;72.93
7109;BME280;29079;41.930;25.558;2023-03-21T11:29:29;99367.44;;;14.11;72.56
7109;BME280;29079;41.930;25.558;2023-03-21T11:32:09;99350.50;;;14.10;72.72
7109;BME280;29079;41.930;25.558;2023-03-21T11:34:44;99345.47;;;14.16;72.80
7109;BME280;29079;41.930;25.558;2023-03-21T11:37:19;99344.47;;;14.17;73.79
7109;BME280;29079;41.930;25.558;2023-03-21T11:40:05;99334.56;;;14.17;74.20
7109;BME280;29079;41.930;25.558;2023-03-21T11:42:41;99325.38;;;14.20;73.14
7109;BME280;29079;41.930;25.558;2023-03-21T11:45:16;99323.69;;;14.19;73.34
7109;BME280;29079;41.930;25.558;2023-03-21T11:47:49;99318.84;;;14.22;72.22
7109;BME280;29079;41.930;25.558;2023-03-21T11:50:28;99312.94;;;14.19;72.62
7109;BME280;29079;41.930;25.558;2023-03-21T11:53:19;99309.94;;;14.30;72.25
7109;BME280;29079;41.930;25.558;2023-03-21T11:56:00;99299.91;;;14.32;71.43
7109;BME280;29079;41.930;25.558;2023-03-21T11:58:38;99298.22;;;14.39;71.20
7109;BME280;29079;41.930;25.558;2023-03-21T12:01:17;99304.41;;;14.32;75.29
7109;BME280;29079;41.930;25.558;2023-03-21T12:04:02;99304.06;;;14.35;71.68
7109;BME280;29079;41.930;25.558;2023-03-21T12:06:40;99295.72;;;14.38;71.87
7109;BME280;29079;41.930;25.558;2023-03-21T12:09:24;99288.34;;;14.48;71.04
7109;BME280;29079;41.930;25.558;2023-03-21T12:12:10;99291.50;;;14.43;71.11
7109;BME280;29079;41.930;25.558;2023-03-21T12:14:55;99289.31;;;14.39;70.79
7109;BME280;29079;41.930;25.558;2023-03-21T12:17:35;99291.19;;;14.47;70.39
7109;BME280;29079;41.930;25.558;2023-03-21T12:23:07;99278.25;;;14.50;70.58
7109;BME280;29079;41.930;25.558;2023-03-21T12:25:44;99284.97;;;14.46;71.09
7109;BME280;29079;41.930;25.558;2023-03-21T12:28:24;99287.50;;;14.56;69.92
7109;BME280;29079;41.930;25.558;2023-03-21T12:31:07;99290.69;;;14.68;69.67
7109;BME280;29079;41.930;25.558;2023-03-21T12:33:45;99284.16;;;14.70;69.54
7109;BME280;29079;41.930;25.558;2023-03-21T12:36:25;99266.66;;;14.83;68.97
7109;BME280;29079;41.930;25.558;2023-03-21T12:39:08;99266.69;;;14.74;69.18
7109;BME280;29079;41.930;25.558;2023-03-21T12:41:48;99259.47;;;14.75;69.41
7109;BME280;29079;41.930;25.558;2023-03-21T12:44:26;99261.66;;;14.79;69.19
7109;BME280;29079;41.930;25.558;2023-03-21T12:47:03;99262.97;;;14.92;68.28
7109;BME280;29079;41.930;25.558;2023-03-21T12:49:40;99260.28;;;14.92;68.11
7109;BME280;29079;41.930;25.558;2023-03-21T12:52:17;99248.84;;;14.98;68.56
7109;BME280;29079;41.930;25.558;2023-03-21T12:54:52;99245.81;;;15.09;67.07
7109;BME280;29079;41.930;25.558;2023-03-21T12:57:31;99243.75;;;15.20;66.31
7109;BME280;29079;41.930;25.558;2023-03-21T13:00:09;99240.09;;;15.04;68.12
7109;BME280;29079;41.930;25.558;2023-03-21T13:03:17;99234.00;;;15.27;65.75
7109;BME280;29079;41.930;25.558;2023-03-21T13:06:04;99228.25;;;15.30;65.78
7109;BME280;29079;41.930;25.558;2023-03-21T13:08:39;99220.91;;;15.24;66.30
7109;BME280;29079;41.930;25.558;2023-03-21T13:11:14;99221.88;;;15.31;66.25
7109;BME280;29079;41.930;25.558;2023-03-21T13:13:51;99218.66;;;15.36;65.62
7109;BME280;29079;41.930;25.558;2023-03-21T13:16:31;99215.47;;;15.32;65.92
7109;BME280;29079;41.930;25.558;2023-03-21T13:19:10;99215.16;;;15.27;66.32
7109;BME280;29079;41.930;25.558;2023-03-21T13:21:49;99213.84;;;15.14;66.91
7109;BME280;29079;41.930;25.558;2023-03-21T13:24:24;99209.78;;;15.27;66.40
7109;BME280;29079;41.930;25.558;2023-03-21T13:27:00;99211.84;;;15.25;66.97
7109;BME280;29079;41.930;25.558;2023-03-21T13:29:40;99207.56;;;15.39;65.58
7109;BME280;29079;41.930;25.558;2023-03-21T13:32:15;99209.41;;;15.38;65.17
7109;BME280;29079;41.930;25.558;2023-03-21T13:34:54;99207.41;;;15.32;65.31
7109;BME280;29079;41.930;25.558;2023-03-21T13:37:32;99212.31;;;15.28;66.56
7109;BME280;29079;41.930;25.558;2023-03-21T13:40:06;99200.78;;;15.11;67.95
7109;BME280;29079;41.930;25.558;2023-03-21T13:42:44;99195.91;;;15.15;67.60
7109;BME280;29079;41.930;25.558;2023-03-21T13:45:22;99202.81;;;15.09;68.19
7109;BME280;29079;41.930;25.558;2023-03-21T13:47:57;99193.59;;;15.04;68.67
7109;BME280;29079;41.930;25.558;2023-03-21T13:50:39;99197.78;;;15.06;67.39
7109;BME280;29079;41.930;25.558;2023-03-21T13:53:31;99202.97;;;15.08;67.00
7109;BME280;29079;41.930;25.558;2023-03-21T13:56:14;99198.81;;;14.97;67.86
7109;BME280;29079;41.930;25.558;2023-03-21T13:58:52;99193.59;;;14.95;68.68
7109;BME280;29079;41.930;25.558;2023-03-21T14:01:30;99191.06;;;15.02;68.01
7109;BME280;29079;41.930;25.558;2023-03-21T14:04:06;99185.38;;;14.97;68.75